Aurora, Ohio
Current Conditions -  °F | °C
As of 5:37 AM on Monday 20 Oct 2014 (Local Time) from KPOV Reporting Station
Overcast Overcast  
Wind Chill: 45°   Ceiling: 11000
Heat Index: 45°   Visibility: 10mi
Dew Point: 35°   Wind: 0mph
Humidity: 67%   Direction: NA
Pressure: 29.98"   Gusts: NA
Location:  41.31°N, 81.34°W
Report Text: KPOV 200937Z AUTO 00000KT 10SM SCT095 OVC110 07/02 A2998 RMK AO2 T00740016
Loading
Personal Weather Stations






























Interactive Weather Map
Tropical Storm Tracking
New forecast layout! Learn more

10-Day Weather Forecast

Advertisements
Track Severe Weather on mobile